Time;durP1;ratioP1;P1;durP2;ratioP2;P2;SDS_P1;SDS_P2;PMS_P1;PMS_P2;Temp;Humidity;BMP_temperature;BMP_pressure;BME280_temperature;BME280_humidity;BME280_pressure;Samples;Min_cycle;Max_cycle;Signal;HPM_P1;HPM_P2
2022/11/14 00:03:12;;;;;;;;;27.40;24.40;;;;;11.86;68.44;99882.56;6188240;28;96421;-61
2022/11/14 00:06:34;;;;;;;;;26.00;22.00;;;;;11.96;68.64;99892.97;6187790;28;96327;-62
2022/11/14 00:09:56;;;;;;;;;29.00;25.00;;;;;11.97;68.91;99895.44;6187626;28;96324;-60
2022/11/14 00:13:19;;;;;;;;;24.33;22.33;;;;;11.99;68.88;99892.56;6187828;28;96268;-61
2022/11/14 00:16:43;;;;;;;;;28.40;24.40;;;;;11.96;68.83;99892.97;6187203;28;96275;-62
2022/11/14 00:20:07;;;;;;;;;27.00;24.60;;;;;11.83;69.11;99891.06;6163371;28;96849;-62
2022/11/14 00:23:29;;;;;;;;;24.50;19.50;;;;;11.81;68.87;99887.75;6181201;28;96764;-62
2022/11/14 00:26:51;;;;;;;;;25.60;24.00;;;;;11.88;69.13;99877.78;6184802;28;97259;-62
2022/11/14 00:30:13;;;;;;;;;27.00;24.00;;;;;11.91;68.88;99884.66;6187726;28;96382;-61
2022/11/14 00:33:36;;;;;;;;;24.60;23.60;;;;;11.77;68.73;99859.50;6187986;28;96318;-61
2022/11/14 00:36:58;;;;;;;;;33.00;25.60;;;;;11.94;68.73;99884.22;6169047;28;96752;-61
2022/11/14 00:40:19;;;;;;;;;26.20;23.80;;;;;11.93;68.80;99883.41;6190207;28;96346;-60
2022/11/14 00:43:41;;;;;;;;;26.75;23.00;;;;;11.92;68.71;99886.31;6191976;28;96896;-62
2022/11/14 00:47:04;;;;;;;;;30.00;24.60;;;;;11.78;68.32;99881.94;6191232;28;96467;-62
2022/11/14 00:50:27;;;;;;;;;27.50;24.75;;;;;11.76;68.46;99887.53;6167343;28;96394;-62
2022/11/14 00:53:49;;;;;;;;;25.80;22.00;;;;;11.58;69.06;99884.56;6167207;28;96295;-61
2022/11/14 00:57:11;;;;;;;;;25.40;24.00;;;;;11.59;69.76;99884.34;6165813;28;96383;-61
2022/11/14 01:00:33;;;;;;;;;26.50;23.50;;;;;11.10;71.38;99881.88;6166160;28;96327;-60
2022/11/14 01:03:55;;;;;;;;;28.00;25.00;;;;;11.30;70.83;99873.88;6165739;28;98392;-60
2022/11/14 01:07:18;;;;;;;;;24.60;21.60;;;;;11.20;71.04;99876.09;6190283;28;96276;-60
2022/11/14 01:10:41;;;;;;;;;22.60;19.40;;;;;11.22;70.90;99876.75;6189788;28;96232;-60
2022/11/14 01:14:06;;;;;;;;;26.50;24.25;;;;;11.32;71.21;99869.13;6189963;28;96969;-60
2022/11/14 01:17:28;;;;;;;;;21.50;20.25;;;;;11.45;70.63;99873.72;6189662;28;96921;-61
2022/11/14 01:20:50;;;;;;;;;25.00;23.00;;;;;11.42;70.61;99869.56;6189627;28;96294;-61
2022/11/14 01:24:13;;;;;;;;;25.50;22.00;;;;;11.41;70.58;99873.28;6190000;28;96367;-62
2022/11/14 01:27:35;;;;;;;;;27.00;23.40;;;;;11.34;70.84;99839.22;6189511;28;96231;-61
2022/11/14 01:31:06;;;;;;;;;27.25;24.00;;;;;11.49;70.71;99859.59;6189669;28;96238;-60
2022/11/14 01:34:28;;;;;;;;;22.00;21.00;;;;;11.58;70.30;99855.66;6189270;28;96224;-60
2022/11/14 01:37:50;;;;;;;;;23.00;22.00;;;;;11.63;70.08;99853.19;6189146;28;96237;-61
2022/11/14 01:41:15;;;;;;;;;25.00;20.00;;;;;11.67;70.09;99848.22;6189721;28;97125;-61
2022/11/14 01:44:46;;;;;;;;;19.40;17.00;;;;;11.60;70.21;99839.25;6189499;28;96996;-60
2022/11/14 01:48:19;;;;;;;;;25.00;22.40;;;;;11.66;69.72;99841.16;6189295;28;97471;-61
2022/11/14 01:51:45;;;;;;;;;25.00;22.00;;;;;11.70;69.66;99839.69;6188612;28;97277;-60
2022/11/14 01:55:09;;;;;;;;;24.00;20.60;;;;;11.67;69.29;99845.53;6136420;28;1505513;-60
2022/11/14 01:58:35;;;;;;;;;21.00;19.40;;;;;11.51;69.56;99843.19;6190363;28;96568;-60
2022/11/14 02:02:04;;;;;;;;;22.00;20.00;;;;;11.50;69.51;99836.13;6189311;28;96951;-60
2022/11/14 02:05:26;;;;;;;;;23.00;19.60;;;;;11.55;69.64;99841.75;6189743;28;96252;-61
2022/11/14 02:08:49;;;;;;;;;22.20;20.00;;;;;11.56;69.51;99835.31;6190220;28;96500;-60
2022/11/14 02:12:15;;;;;;;;;25.60;21.60;;;;;11.66;69.64;99835.75;6192642;28;96397;-62
2022/11/14 02:15:39;;;;;;;;;19.75;17.50;;;;;11.63;69.22;99838.88;6196725;28;96243;-61
2022/11/14 02:19:00;;;;;;;;;22.00;20.40;;;;;11.64;69.33;99832.41;6184987;28;96275;-61
2022/11/14 02:22:24;;;;;;;;;23.00;20.00;;;;;11.59;69.03;99816.81;6186929;28;96529;-61
2022/11/14 02:25:46;;;;;;;;;24.50;20.50;;;;;11.64;68.98;99818.91;6187125;28;96290;-60
2022/11/14 02:29:10;;;;;;;;;18.00;18.00;;;;;11.75;68.93;99821.03;6184752;28;96316;-60
2022/11/14 02:32:31;;;;;;;;;23.25;21.00;;;;;11.76;68.49;99816.47;6189942;28;96258;-62
2022/11/14 02:36:13;;;;;;;;;20.20;19.00;;;;;11.69;68.63;99819.13;6188177;28;97351;-61
2022/11/14 02:39:37;;;;;;;;;21.00;18.00;;;;;11.70;68.43;99813.53;6187621;28;96509;-60
2022/11/14 02:42:59;;;;;;;;;18.80;16.80;;;;;11.58;68.35;99804.34;6188095;28;96229;-62
2022/11/14 02:46:21;;;;;;;;;23.80;20.00;;;;;11.63;68.86;99806.47;6188314;28;96416;-60
2022/11/14 02:49:43;;;;;;;;;20.80;18.20;;;;;11.68;68.93;99806.63;6183714;28;96435;-61
2022/11/14 02:53:05;;;;;;;;;21.20;17.60;;;;;11.71;68.19;99806.25;6187331;28;96446;-61
2022/11/14 02:56:29;;;;;;;;;20.50;19.00;;;;;11.70;68.42;99804.56;6183663;28;96423;-62
2022/11/14 02:59:51;;;;;;;;;20.00;18.00;;;;;11.63;68.48;99804.56;6187910;28;96623;-61
2022/11/14 03:03:12;;;;;;;;;25.00;22.00;;;;;11.62;68.69;99811.03;6186319;28;96976;-63
2022/11/14 03:06:34;;;;;;;;;17.60;15.60;;;;;11.65;68.71;99799.81;6187001;28;96373;-61
2022/11/14 03:09:56;;;;;;;;;20.00;17.20;;;;;11.64;68.67;99794.59;6185903;28;96703;-63
2022/11/14 03:13:19;;;;;;;;;19.20;18.40;;;;;11.65;68.83;99799.81;6184944;28;96246;-62
2022/11/14 03:16:41;;;;;;;;;16.67;14.67;;;;;11.57;68.85;99797.31;6182969;28;96568;-63
2022/11/14 03:20:02;;;;;;;;;17.00;16.00;;;;;11.51;69.02;99784.63;6183319;28;96911;-61
2022/11/14 03:23:24;;;;;;;;;16.20;15.80;;;;;11.44;69.62;99789.16;6175416;28;96940;-61
2022/11/14 03:26:46;;;;;;;;;19.40;18.60;;;;;11.33;69.61;99797.06;6181204;28;96800;-61
2022/11/14 03:30:11;;;;;;;;;15.50;15.25;;;;;11.01;70.93;99791.34;6165580;28;97137;-61
2022/11/14 03:33:35;;;;;;;;;17.00;15.25;;;;;11.02;71.29;99797.56;6179822;28;96251;-61
2022/11/14 03:36:57;;;;;;;;;18.60;16.40;;;;;11.13;71.30;99788.91;6185810;28;96047;-61
2022/11/14 03:40:19;;;;;;;;;14.75;13.75;;;;;11.28;70.94;99789.56;6187727;28;96350;-61
2022/11/14 03:43:41;;;;;;;;;14.60;12.00;;;;;10.89;71.64;99798.38;6186971;28;96630;-61
2022/11/14 03:47:05;;;;;;;;;15.00;14.60;;;;;10.88;72.10;99793.16;6168908;28;97323;-59
2022/11/14 03:50:26;;;;;;;;;15.00;14.00;;;;;11.05;71.89;99789.06;6188297;28;96421;-60
2022/11/14 03:53:48;;;;;;;;;17.00;16.00;;;;;11.14;71.62;99779.78;6169727;28;97088;-61
2022/11/14 03:57:10;;;;;;;;;16.00;14.00;;;;;11.19;71.34;99791.59;6187242;28;96325;-60
2022/11/14 04:00:32;;;;;;;;;16.00;14.60;;;;;11.32;70.92;99788.13;6185553;28;96926;-60
2022/11/14 04:03:56;;;;;;;;;15.25;14.25;;;;;11.40;70.58;99784.38;6194757;28;96865;-61
2022/11/14 04:07:18;;;;;;;;;17.00;17.00;;;;;11.40;70.41;99781.69;6187492;28;96518;-61
2022/11/14 04:10:41;;;;;;;;;19.00;17.00;;;;;11.34;70.15;99774.44;6191450;28;96397;-60
2022/11/14 04:14:03;;;;;;;;;19.00;15.00;;;;;11.39;69.81;99758.41;6200512;28;96405;-60
2022/11/14 04:17:25;;;;;;;;;16.00;15.60;;;;;11.40;69.89;99765.47;6192330;28;97020;-62
2022/11/14 04:20:49;;;;;;;;;17.00;16.00;;;;;11.19;70.70;99764.59;6195800;28;96741;-62
2022/11/14 04:24:10;;;;;;;;;19.00;17.00;;;;;11.02;71.25;99765.19;6193348;28;96410;-62
2022/11/14 04:27:32;;;;;;;;;13.20;12.00;;;;;10.81;72.09;99769.69;6203095;28;96399;-62
2022/11/14 04:30:53;;;;;;;;;13.00;11.50;;;;;10.59;73.20;99770.03;6197207;28;96225;-60
2022/11/14 04:34:15;;;;;;;;;16.25;14.75;;;;;10.62;73.77;99769.59;6179238;28;97736;-60
2022/11/14 04:37:38;;;;;;;;;19.00;17.00;;;;;10.62;73.80;99758.81;6186605;28;96259;-60
2022/11/14 04:41:00;;;;;;;;;19.00;14.50;;;;;10.40;74.47;99764.34;6186572;28;96390;-60
2022/11/14 04:44:22;;;;;;;;;19.40;17.40;;;;;10.43;74.74;99766.63;6186326;28;96298;-60
2022/11/14 04:47:44;;;;;;;;;18.00;16.80;;;;;10.58;74.28;99766.50;6185461;28;96850;-61
2022/11/14 04:51:06;;;;;;;;;18.40;14.00;;;;;10.52;74.25;99763.75;6179651;28;97706;-61
2022/11/14 04:54:30;;;;;;;;;18.00;15.00;;;;;10.35;75.27;99763.25;6184724;28;96806;-61
2022/11/14 04:57:56;;;;;;;;;17.00;16.00;;;;;10.33;74.84;99757.22;6190650;28;96629;-62
2022/11/14 05:01:19;;;;;;;;;15.00;13.75;;;;;10.23;75.31;99757.59;6174223;28;96290;-60
2022/11/14 05:04:43;;;;;;;;;16.80;15.80;;;;;10.28;75.00;99747.03;6186452;28;96238;-63
2022/11/14 05:08:05;;;;;;;;;13.60;13.00;;;;;10.34;75.19;99753.50;6186171;28;96237;-60
2022/11/14 05:11:28;;;;;;;;;14.00;12.20;;;;;10.42;74.64;99747.94;6185957;28;96920;-60
2022/11/14 05:14:50;;;;;;;;;16.00;13.00;;;;;10.60;74.42;99747.41;6186060;28;97022;-60
2022/11/14 05:18:12;;;;;;;;;19.60;16.40;;;;;10.69;74.00;99746.22;6185987;28;96856;-62
2022/11/14 05:21:34;;;;;;;;;24.00;19.00;;;;;10.75;73.43;99742.72;6179893;28;96380;-60
2022/11/14 05:24:56;;;;;;;;;15.00;13.00;;;;;10.69;73.10;99733.56;6181693;28;96324;-60
2022/11/14 05:28:20;;;;;;;;;17.00;15.00;;;;;10.66;73.01;99733.94;6186613;28;96699;-61
2022/11/14 05:31:41;;;;;;;;;19.00;17.00;;;;;10.54;73.03;99740.13;6162451;28;96661;-61
2022/11/14 05:35:03;;;;;;;;;17.40;15.40;;;;;10.49;73.13;99739.88;6182722;28;96839;-61
2022/11/14 05:38:25;;;;;;;;;15.50;13.25;;;;;10.53;72.60;99747.38;6168946;28;96324;-62
2022/11/14 05:41:47;;;;;;;;;15.50;14.00;;;;;10.52;72.35;99751.09;6173972;28;96898;-60
2022/11/14 05:45:11;;;;;;;;;17.60;15.60;;;;;10.63;72.06;99750.53;6173606;28;97084;-61
2022/11/14 05:48:33;;;;;;;;;12.75;11.00;;;;;10.70;71.65;99732.50;6198681;28;96812;-63
2022/11/14 05:51:55;;;;;;;;;16.60;16.00;;;;;10.77;71.59;99743.31;6189257;28;96424;-63
2022/11/14 05:55:17;;;;;;;;;15.00;13.00;;;;;10.81;71.08;99740.00;6187974;28;96451;-61
2022/11/14 05:58:45;;;;;;;;;18.00;15.75;;;;;10.95;70.87;99750.84;6185729;28;96284;-61
2022/11/14 06:02:09;;;;;;;;;13.20;12.60;;;;;10.68;71.20;99745.38;6188331;28;96492;-60
2022/11/14 06:05:32;;;;;;;;;17.80;17.40;;;;;10.81;71.52;99731.09;6185120;28;96577;-60
2022/11/14 06:08:53;;;;;;;;;15.00;13.25;;;;;10.84;71.31;99744.19;6183048;28;96362;-60
2022/11/14 06:12:16;;;;;;;;;19.60;17.00;;;;;10.94;71.44;99746.50;6193699;28;96810;-61
2022/11/14 06:15:38;;;;;;;;;18.00;17.00;;;;;11.05;70.93;99751.28;6196508;28;96829;-61
2022/11/14 06:19:01;;;;;;;;;18.00;16.00;;;;;11.11;70.45;99747.78;6186907;28;96905;-62
2022/11/14 06:22:23;;;;;;;;;20.00;18.20;;;;;11.09;70.11;99753.38;6185752;28;96818;-60
2022/11/14 06:25:45;;;;;;;;;16.25;14.00;;;;;11.17;69.76;99760.47;6193564;28;96412;-63
2022/11/14 06:29:07;;;;;;;;;20.00;18.00;;;;;11.15;69.95;99768.75;6198751;28;97355;-62
2022/11/14 06:32:29;;;;;;;;;19.50;15.00;;;;;11.18;70.08;99760.28;6199035;28;96590;-60
2022/11/14 06:35:57;;;;;;;;;16.25;14.00;;;;;11.20;69.92;99755.47;6198255;28;96531;-60
2022/11/14 06:39:19;;;;;;;;;17.75;15.00;;;;;11.33;68.93;99756.56;6196122;28;96676;-61
2022/11/14 06:42:40;;;;;;;;;15.80;14.80;;;;;11.44;68.74;99758.63;6197322;28;96238;-61
2022/11/14 06:46:03;;;;;;;;;18.60;17.00;;;;;11.49;68.56;99754.28;6188268;28;96338;-62
2022/11/14 06:49:26;;;;;;;;;16.60;14.60;;;;;11.51;68.14;99749.50;6188947;28;97578;-61
2022/11/14 06:52:49;;;;;;;;;18.60;17.60;;;;;11.39;68.51;99748.44;6182136;28;97983;-60
2022/11/14 06:56:13;;;;;;;;;19.25;15.75;;;;;11.33;68.54;99737.66;6177714;28;96325;-60
2022/11/14 06:59:35;;;;;;;;;16.00;16.00;;;;;11.21;68.95;99745.53;6184267;28;96428;-60
2022/11/14 07:02:57;;;;;;;;;19.00;17.00;;;;;11.34;69.14;99739.31;6188880;28;96775;-60
2022/11/14 07:06:22;;;;;;;;;13.00;11.60;;;;;11.41;68.69;99732.06;6186910;28;96373;-60
2022/11/14 07:09:46;;;;;;;;;16.40;15.60;;;;;11.39;68.26;99723.31;6187216;28;96569;-61
2022/11/14 07:13:09;;;;;;;;;19.00;18.00;;;;;11.33;68.29;99726.88;6186901;28;96422;-60
2022/11/14 07:16:33;;;;;;;;;14.50;13.00;;;;;11.26;68.62;99734.94;6194894;28;96488;-60
2022/11/14 07:19:56;;;;;;;;;15.20;14.60;;;;;11.33;69.17;99732.25;6188033;28;96372;-61
2022/11/14 07:23:18;;;;;;;;;20.00;18.00;;;;;11.44;68.76;99740.56;6170585;28;96338;-62
2022/11/14 07:26:45;;;;;;;;;19.20;17.00;;;;;11.39;68.20;99732.25;6178759;28;96376;-60
2022/11/14 07:30:08;;;;;;;;;17.00;15.00;;;;;11.51;67.96;99740.56;6179829;28;96701;-61
2022/11/14 07:33:30;;;;;;;;;16.00;15.00;;;;;11.39;67.64;99744.91;6169029;28;96785;-64
2022/11/14 07:36:53;;;;;;;;;22.80;21.80;;;;;11.30;67.78;99753.22;6187351;28;97643;-61
2022/11/14 07:40:16;;;;;;;;;20.60;19.00;;;;;11.22;67.99;99736.41;6181192;28;96236;-61
2022/11/14 07:43:39;;;;;;;;;21.00;17.60;;;;;11.36;67.87;99739.94;6185913;28;97170;-61
2022/11/14 07:47:00;;;;;;;;;21.00;18.25;;;;;11.43;67.89;99744.31;6185812;28;96421;-60
2022/11/14 07:50:22;;;;;;;;;22.40;20.40;;;;;11.42;68.02;99750.75;6183654;28;97063;-63
2022/11/14 07:53:44;;;;;;;;;21.80;19.00;;;;;11.31;68.15;99718.97;6182497;28;96417;-62
2022/11/14 07:57:06;;;;;;;;;20.75;18.00;;;;;11.55;67.89;99744.53;6185640;28;96467;-62
2022/11/14 08:00:30;;;;;;;;;18.00;18.00;;;;;11.61;67.26;99746.41;6168463;28;96696;-62
2022/11/14 08:03:52;;;;;;;;;18.40;15.40;;;;;11.71;67.13;99738.72;6187656;28;96394;-60
2022/11/14 08:07:13;;;;;;;;;21.40;17.20;;;;;11.81;66.71;99741.88;6183104;28;97569;-62
2022/11/14 08:10:35;;;;;;;;;19.00;18.00;;;;;11.89;66.50;99741.63;6184361;28;96467;-62
2022/11/14 08:13:57;;;;;;;;;17.60;16.60;;;;;11.94;66.05;99733.72;6185638;28;96676;-62
2022/11/14 08:17:21;;;;;;;;;16.60;14.60;;;;;12.01;65.79;99715.66;6179561;28;96421;-60
2022/11/14 08:20:43;;;;;;;;;17.00;15.00;;;;;12.07;64.81;99719.38;6166965;28;96705;-60
2022/11/14 08:24:06;;;;;;;;;19.00;17.00;;;;;11.97;64.71;99716.28;6186642;28;97056;-61
2022/11/14 08:27:28;;;;;;;;;17.00;16.00;;;;;12.00;65.36;99711.28;6180885;28;96232;-61
2022/11/14 08:30:51;;;;;;;;;21.00;16.60;;;;;12.05;65.08;99694.44;6187300;28;96429;-60
2022/11/14 08:34:14;;;;;;;;;19.33;19.00;;;;;12.02;64.45;99697.56;6175569;28;96497;-62
2022/11/14 08:37:38;;;;;;;;;18.25;16.00;;;;;12.08;64.88;99697.53;6175601;28;97330;-61
2022/11/14 08:41:01;;;;;;;;;19.20;18.00;;;;;12.05;64.68;99676.34;6174698;28;96284;-60
2022/11/14 08:44:24;;;;;;;;;24.00;22.00;;;;;12.25;63.80;99684.41;6169480;28;96714;-60
2022/11/14 08:47:52;;;;;;;;;18.00;17.00;;;;;12.32;63.48;99692.47;6187126;28;96231;-62
2022/11/14 08:51:15;;;;;;;;;16.00;15.25;;;;;12.29;63.37;99687.50;6181276;28;96385;-62
2022/11/14 08:54:37;;;;;;;;;19.00;17.00;;;;;12.03;63.18;99694.63;6179900;28;96419;-61
2022/11/14 08:57:59;;;;;;;;;22.00;19.00;;;;;11.98;64.23;99699.00;6183145;28;96572;-61
2022/11/14 09:01:21;;;;;;;;;21.00;20.00;;;;;11.75;63.78;99696.75;6187206;28;96363;-60
2022/11/14 09:04:42;;;;;;;;;21.40;19.00;;;;;11.72;64.36;99697.16;6191346;28;96421;-61
2022/11/14 09:08:06;;;;;;;;;23.00;21.40;;;;;11.86;64.43;99698.84;6172500;28;96688;-62
2022/11/14 09:11:28;;;;;;;;;21.60;21.00;;;;;11.71;64.28;99706.28;6191356;28;96264;-63
2022/11/14 09:14:50;;;;;;;;;24.00;21.00;;;;;11.71;64.46;99700.91;6190933;28;96539;-66
2022/11/14 09:18:14;;;;;;;;;17.80;16.80;;;;;11.76;64.82;99692.19;6191212;28;96647;-62
2022/11/14 09:21:35;;;;;;;;;18.00;16.00;;;;;11.79;64.66;99698.00;6191043;28;96222;-62
2022/11/14 09:24:58;;;;;;;;;21.50;17.25;;;;;11.56;64.21;99702.97;6187827;28;97281;-62
2022/11/14 09:28:20;;;;;;;;;22.00;18.00;;;;;11.61;64.45;99692.38;6190201;28;96894;-62
2022/11/14 09:31:42;;;;;;;;;18.00;17.60;;;;;11.66;65.09;99687.19;6190068;28;96534;-63
2022/11/14 09:35:04;;;;;;;;;23.00;18.00;;;;;11.71;65.09;99684.69;6191013;28;96826;-62
2022/11/14 09:38:27;;;;;;;;;23.40;22.00;;;;;11.85;65.13;99689.06;6190535;28;96483;-62
2022/11/14 09:42:06;;;;;;;;;22.40;19.60;;;;;11.95;64.55;99689.47;6190288;28;96615;-62
2022/11/14 09:45:36;;;;;;;;;30.25;24.25;;;;;12.04;64.84;99687.34;6171840;28;98410;-62
2022/11/14 09:48:58;;;;;;;;;29.80;26.80;;;;;12.15;65.18;99679.44;6190342;28;96273;-61
2022/11/14 09:52:30;;;;;;;;;27.75;25.25;;;;;12.13;64.89;99669.88;6194150;28;97004;-62
2022/11/14 09:55:52;;;;;;;;;28.00;25.00;;;;;12.07;64.91;99663.44;6197565;28;97153;-64
2022/11/14 09:59:15;;;;;;;;;27.60;25.60;;;;;11.98;64.54;99664.72;6185624;28;97529;-65
2022/11/14 10:02:46;;;;;;;;;34.00;29.60;;;;;11.86;65.65;99661.00;6173682;28;96266;-61
2022/11/14 10:06:21;;;;;;;;;27.20;25.20;;;;;12.09;64.84;99668.63;6188406;28;96274;-62
2022/11/14 10:09:59;;;;;;;;;26.40;24.20;;;;;12.09;64.59;99661.34;6185204;28;96527;-61
2022/11/14 10:13:47;;;;;;;;;25.00;23.00;;;;;12.08;63.48;99662.38;6165965;28;96728;-62
2022/11/14 10:17:23;;;;;;;;;21.00;19.00;;;;;11.78;64.66;99668.50;6170596;28;96393;-62
2022/11/14 10:20:52;;;;;;;;;23.00;21.20;;;;;11.70;65.28;99658.72;6178996;28;96264;-62
2022/11/14 10:24:36;;;;;;;;;25.80;24.00;;;;;11.60;65.85;99642.09;6171781;28;96421;-62
2022/11/14 10:28:22;;;;;;;;;33.60;30.60;;;;;11.55;65.72;99647.28;6171592;28;96410;-63
2022/11/14 10:31:53;;;;;;;;;32.00;30.00;;;;;11.50;65.83;99639.81;6169451;28;96426;-62
2022/11/14 10:35:20;;;;;;;;;24.00;22.50;;;;;11.44;66.91;99645.22;6175776;28;96427;-63
2022/11/14 10:38:50;;;;;;;;;24.00;22.00;;;;;11.29;66.39;99637.34;6168493;28;96644;-62
2022/11/14 10:42:25;;;;;;;;;24.25;22.25;;;;;11.35;67.42;99620.31;6172586;28;96634;-62
2022/11/14 10:45:53;;;;;;;;;22.00;18.75;;;;;11.46;66.72;99614.28;6178361;28;96442;-62
2022/11/14 10:49:19;;;;;;;;;21.20;19.20;;;;;11.50;65.84;99618.22;6183140;28;97345;-62
2022/11/14 10:52:45;;;;;;;;;24.40;21.40;;;;;11.65;66.13;99616.13;6172071;28;96582;-63
2022/11/14 10:56:11;;;;;;;;;22.00;20.00;;;;;11.55;65.91;99609.50;6176466;28;96614;-62
2022/11/14 10:59:33;;;;;;;;;22.40;19.80;;;;;11.56;65.56;99612.00;6173001;28;96264;-61
2022/11/14 11:02:57;;;;;;;;;19.00;17.25;;;;;11.20;65.78;99609.72;6179916;28;96480;-62
2022/11/14 11:06:26;;;;;;;;;20.00;19.40;;;;;11.29;65.93;99605.78;6180496;28;96526;-61
2022/11/14 11:13:52;;;;;;;;;21.50;18.50;;;;;11.45;65.57;99596.41;6176108;28;96340;-61
2022/11/14 11:17:20;;;;;;;;;23.40;19.00;;;;;11.30;65.66;99601.22;6173272;28;96423;-62
2022/11/14 11:20:42;;;;;;;;;24.00;21.33;;;;;11.32;65.89;99603.72;6170670;28;96450;-64
2022/11/14 11:24:05;;;;;;;;;34.40;30.00;;;;;11.37;65.28;99596.66;6169888;28;96445;-62
2022/11/14 11:27:30;;;;;;;;;24.00;22.40;;;;;11.48;65.57;99589.78;6184373;28;96636;-62
2022/11/14 11:30:56;;;;;;;;;24.50;23.50;;;;;11.54;65.45;99580.81;6169043;28;96847;-62
2022/11/14 11:34:24;;;;;;;;;28.40;24.00;;;;;11.53;64.56;99582.69;6185270;28;97595;-61
2022/11/14 11:37:53;;;;;;;;;24.60;22.60;;;;;11.56;64.80;99590.38;6169166;28;96688;-62
2022/11/14 11:41:23;;;;;;;;;25.00;22.00;;;;;11.47;64.34;99586.25;6183606;28;96308;-62
2022/11/14 11:45:16;;;;;;;;;25.60;23.60;;;;;11.43;64.49;99587.72;6179156;28;96536;-62
2022/11/14 11:48:39;;;;;;;;;23.00;21.25;;;;;11.34;64.97;99578.16;6184535;28;96388;-62
2022/11/14 11:52:05;;;;;;;;;20.00;18.00;;;;;11.34;65.18;99563.84;6168470;28;96645;-62
2022/11/14 11:55:31;;;;;;;;;21.25;20.00;;;;;11.34;65.26;99570.06;6186599;28;96884;-62
2022/11/14 11:59:02;;;;;;;;;23.00;22.00;;;;;11.29;65.58;99576.09;6182252;28;96964;-63
2022/11/14 12:02:27;;;;;;;;;30.40;26.40;;;;;11.34;65.87;99570.06;6182513;28;96532;-61
2022/11/14 12:05:59;;;;;;;;;27.00;26.00;;;;;11.43;65.71;99571.53;6174542;28;96438;-62
2022/11/14 12:09:27;;;;;;;;;27.60;23.00;;;;;11.47;65.67;99571.91;6184497;28;96693;-62
2022/11/14 12:13:55;;;;;;;;;27.50;25.25;;;;;11.17;65.99;99575.06;6187277;28;96914;-62
2022/11/14 12:17:48;;;;;;;;;25.00;23.00;;;;;11.06;66.96;99573.00;6180622;28;97460;-62
2022/11/14 12:21:13;;;;;;;;;28.40;27.00;;;;;10.76;68.79;99561.78;6161770;28;96329;-61
2022/11/14 12:25:00;;;;;;;;;26.40;25.00;;;;;10.73;69.47;99550.56;6187503;28;96275;-63
2022/11/14 12:28:58;;;;;;;;;28.25;25.75;;;;;10.59;69.95;99552.44;6175877;28;97180;-64
2022/11/14 12:32:31;;;;;;;;;27.60;26.00;;;;;10.46;70.99;99540.81;6186971;28;96264;-63
2022/11/14 12:35:58;;;;;;;;;29.00;24.00;;;;;10.61;70.53;99552.22;6179603;28;96252;-63
2022/11/14 12:39:24;;;;;;;;;23.60;22.00;;;;;10.82;70.26;99544.78;6186776;28;96430;-62
2022/11/14 12:42:47;;;;;;;;;25.00;21.67;;;;;10.97;69.70;99535.63;6186772;28;96541;-62
2022/11/14 12:46:11;;;;;;;;;30.20;28.60;;;;;11.13;69.39;99527.13;6191799;28;96657;-61
2022/11/14 12:49:38;;;;;;;;;26.00;25.40;;;;;11.16;69.22;99514.03;6175533;28;96564;-62
2022/11/14 12:53:01;;;;;;;;;27.40;25.60;;;;;11.22;69.82;99510.50;6175787;28;96265;-63
2022/11/14 12:56:47;;;;;;;;;25.75;24.00;;;;;11.21;69.10;99514.22;6176469;28;96419;-62
2022/11/14 13:00:16;;;;;;;;;25.00;24.00;;;;;11.27;68.73;99516.09;6181851;28;96757;-63
2022/11/14 13:03:48;;;;;;;;;27.60;25.40;;;;;11.33;69.10;99509.03;6175812;28;96616;-62
2022/11/14 13:07:28;;;;;;;;;33.00;30.00;;;;;11.54;68.67;99503.34;6160428;28;96748;-62
2022/11/14 13:10:56;;;;;;;;;30.75;28.75;;;;;11.24;69.00;99507.56;6155485;28;96702;-62
2022/11/14 13:22:28;;;;;;;;;30.60;29.00;;;;;11.05;70.20;99506.56;6179859;28;96525;-61
2022/11/14 13:26:34;;;;;;;;;31.60;29.20;;;;;10.98;70.44;99492.28;6178656;28;96896;-61
2022/11/14 13:29:58;;;;;;;;;28.60;26.00;;;;;11.15;70.29;99498.88;6172016;28;96643;-61
2022/11/14 13:33:42;;;;;;;;;32.40;30.40;;;;;11.16;70.01;99491.59;6178997;28;96272;-62
2022/11/14 13:37:20;;;;;;;;;30.50;27.25;;;;;10.92;71.03;99492.25;6181058;28;96442;-62
2022/11/14 13:40:51;;;;;;;;;39.00;33.00;;;;;10.94;71.08;99485.63;6178031;28;96385;-62
2022/11/14 13:44:40;;;;;;;;;36.00;31.80;;;;;10.99;71.46;99471.53;6189728;28;96580;-62
2022/11/14 13:48:48;;;;;;;;;32.60;30.00;;;;;11.20;71.07;99476.66;6186539;28;96308;-62
2022/11/14 13:52:12;;;;;;;;;33.00;30.00;;;;;11.29;70.83;99481.59;6112784;28;97411;-62
2022/11/14 13:55:44;;;;;;;;;34.25;29.75;;;;;11.30;70.94;99480.56;6096046;28;96761;-62
2022/11/14 13:59:51;;;;;;;;;34.80;30.20;;;;;11.25;71.17;99474.97;6112752;28;96555;-62
2022/11/14 14:03:34;;;;;;;;;39.00;33.00;;;;;11.14;72.26;99461.31;6115225;28;96782;-63
2022/11/14 14:07:08;;;;;;;;;38.40;32.20;;;;;11.05;72.12;99452.59;6114501;28;96607;-62
2022/11/14 14:10:41;;;;;;;;;31.80;28.00;;;;;11.11;72.06;99461.72;6112741;28;96662;-64
2022/11/14 14:14:14;;;;;;;;;28.00;26.20;;;;;11.22;71.77;99447.59;6112787;28;97457;-63
2022/11/14 14:17:48;;;;;;;;;29.75;26.75;;;;;11.34;71.71;99448.56;6093850;28;96957;-61
2022/11/14 14:21:23;;;;;;;;;30.80;28.00;;;;;11.36;71.40;99443.81;6117138;28;96704;-64
2022/11/14 14:24:54;;;;;;;;;30.00;28.40;;;;;11.58;70.74;99438.94;6176069;28;96881;-65
2022/11/14 14:28:25;;;;;;;;;26.60;24.60;;;;;11.49;71.20;99448.31;6177066;28;96537;-62
2022/11/14 14:31:47;;;;;;;;;31.00;27.50;;;;;11.28;72.34;99441.34;6174423;28;97492;-61
2022/11/14 14:35:25;;;;;;;;;29.00;26.00;;;;;11.14;72.83;99428.94;6178718;28;96604;-63
2022/11/14 14:38:49;;;;;;;;;26.20;24.20;;;;;11.01;73.63;99421.69;6170567;28;96438;-62
2022/11/14 14:42:12;;;;;;;;;29.00;25.60;;;;;10.88;74.40;99423.59;6179154;28;96512;-62
2022/11/14 14:45:46;;;;;;;;;35.00;31.75;;;;;10.55;76.38;99424.47;6183854;28;97066;-61
2022/11/14 14:49:09;;;;;;;;;39.25;33.25;;;;;10.25;77.84;99431.31;6186022;28;96495;-63
2022/11/14 14:52:32;;;;;;;;;34.00;30.00;;;;;10.36;78.56;99423.41;6188112;28;96850;-63
2022/11/14 14:55:58;;;;;;;;;35.25;31.50;;;;;10.56;77.64;99431.50;6188106;28;96386;-63
2022/11/14 14:59:23;;;;;;;;;35.00;31.00;;;;;10.75;76.62;99414.47;6168257;28;96474;-62
2022/11/14 15:02:45;;;;;;;;;34.00;30.00;;;;;10.95;76.03;99416.28;6186407;28;96195;-63
2022/11/14 15:06:28;;;;;;;;;33.25;30.25;;;;;11.02;74.77;99406.34;6189076;28;96355;-63
2022/11/14 15:09:55;;;;;;;;;35.60;32.60;;;;;11.17;73.97;99409.59;6163790;28;97047;-62
2022/11/14 15:13:18;;;;;;;;;28.00;26.00;;;;;11.21;73.45;99408.13;6184235;28;96776;-63
2022/11/14 15:16:41;;;;;;;;;31.60;30.00;;;;;11.33;72.90;99405.63;6188829;28;96259;-63
2022/11/14 15:20:03;;;;;;;;;28.25;27.25;;;;;11.20;72.82;99401.91;6185159;28;97442;-62
2022/11/14 15:23:25;;;;;;;;;29.33;26.33;;;;;11.21;72.84;99402.75;6188270;28;96407;-63
2022/11/14 15:26:49;;;;;;;;;36.40;32.00;;;;;10.93;73.53;99397.66;6186871;28;96917;-62
2022/11/14 15:30:23;;;;;;;;;40.50;33.00;;;;;10.88;74.67;99415.50;6175320;28;96300;-62
2022/11/14 15:33:45;;;;;;;;;37.40;33.20;;;;;10.66;75.02;99387.94;6188337;28;97455;-61
2022/11/14 15:37:18;;;;;;;;;37.00;31.40;;;;;11.04;74.42;99404.25;6157654;28;98261;-62
2022/11/14 15:40:41;;;;;;;;;33.50;30.00;;;;;11.23;73.92;99408.75;6192866;28;96803;-62
2022/11/14 15:44:04;;;;;;;;;38.00;32.00;;;;;11.38;73.21;99411.19;6166578;28;98342;-62
2022/11/14 15:47:29;;;;;;;;;34.25;30.00;;;;;11.34;73.33;99410.78;6173044;28;96391;-63
2022/11/14 15:50:51;;;;;;;;;33.50;30.50;;;;;11.04;73.89;99405.09;6161659;28;96839;-65
2022/11/14 15:54:22;;;;;;;;;31.00;29.00;;;;;10.95;74.48;99408.22;6172522;28;96478;-64
2022/11/14 15:57:44;;;;;;;;;36.67;32.00;;;;;11.02;74.90;99404.47;6175791;28;96424;-64
2022/11/14 16:01:26;;;;;;;;;39.40;33.20;;;;;10.84;75.10;99407.84;6185591;28;97868;-62